sensor_id;sensor_type;location;lat;lon;timestamp;P1;durP1;ratioP1;P2;durP2;ratioP2
5022;SDS011;2530;47.990;7.866;2024-03-23T00:55:11;2.33;;;1.70;;
5022;SDS011;2530;47.990;7.866;2024-03-23T00:57:37;2.70;;;1.90;;
5022;SDS011;2530;47.990;7.866;2024-03-23T01:00:03;1.80;;;1.60;;
5022;SDS011;2530;47.990;7.866;2024-03-23T01:02:31;4.45;;;1.80;;
5022;SDS011;2530;47.990;7.866;2024-03-23T01:04:59;3.72;;;1.77;;
5022;SDS011;2530;47.990;7.866;2024-03-23T01:07:25;1.98;;;1.85;;
5022;SDS011;2530;47.990;7.866;2024-03-23T01:09:50;2.03;;;1.70;;
5022;SDS011;2530;47.990;7.866;2024-03-23T01:12:18;3.40;;;1.80;;
5022;SDS011;2530;47.990;7.866;2024-03-23T01:14:43;2.40;;;1.80;;
5022;SDS011;2530;47.990;7.866;2024-03-23T01:17:09;2.30;;;1.97;;
5022;SDS011;2530;47.990;7.866;2024-03-23T01:19:34;2.50;;;1.93;;
5022;SDS011;2530;47.990;7.866;2024-03-23T01:22:00;2.03;;;1.83;;
5022;SDS011;2530;47.990;7.866;2024-03-23T01:24:26;2.33;;;1.90;;
5022;SDS011;2530;47.990;7.866;2024-03-23T01:26:51;4.70;;;2.30;;
5022;SDS011;2530;47.990;7.866;2024-03-23T01:29:17;2.20;;;2.00;;
5022;SDS011;2530;47.990;7.866;2024-03-23T01:31:42;3.53;;;2.30;;
5022;SDS011;2530;47.990;7.866;2024-03-23T01:34:10;2.40;;;2.00;;
5022;SDS011;2530;47.990;7.866;2024-03-23T01:36:36;2.20;;;2.00;;
5022;SDS011;2530;47.990;7.866;2024-03-23T01:39:01;2.50;;;2.10;;
5022;SDS011;2530;47.990;7.866;2024-03-23T01:41:27;2.42;;;2.22;;
5022;SDS011;2530;47.990;7.866;2024-03-23T01:43:53;2.60;;;1.90;;
5022;SDS011;2530;47.990;7.866;2024-03-23T01:46:20;2.50;;;2.10;;
5022;SDS011;2530;47.990;7.866;2024-03-23T01:48:46;2.73;;;1.70;;
5022;SDS011;2530;47.990;7.866;2024-03-23T01:51:12;3.63;;;2.30;;
5022;SDS011;2530;47.990;7.866;2024-03-23T01:53:38;2.40;;;2.20;;
5022;SDS011;2530;47.990;7.866;2024-03-23T01:56:03;3.40;;;2.20;;
5022;SDS011;2530;47.990;7.866;2024-03-23T01:58:30;2.88;;;2.38;;
5022;SDS011;2530;47.990;7.866;2024-03-23T02:00:57;4.50;;;2.30;;
5022;SDS011;2530;47.990;7.866;2024-03-23T02:03:23;2.10;;;1.80;;
5022;SDS011;2530;47.990;7.866;2024-03-23T02:05:52;2.55;;;1.80;;
5022;SDS011;2530;47.990;7.866;2024-03-23T02:08:21;3.42;;;2.20;;
5022;SDS011;2530;47.990;7.866;2024-03-23T02:10:48;2.55;;;2.10;;
5022;SDS011;2530;47.990;7.866;2024-03-23T02:13:14;2.10;;;1.90;;
5022;SDS011;2530;47.990;7.866;2024-03-23T02:15:41;3.45;;;2.15;;
5022;SDS011;2530;47.990;7.866;2024-03-23T02:18:07;1.90;;;1.70;;
5022;SDS011;2530;47.990;7.866;2024-03-23T02:20:33;2.30;;;2.10;;
5022;SDS011;2530;47.990;7.866;2024-03-23T02:23:00;2.70;;;2.43;;
5022;SDS011;2530;47.990;7.866;2024-03-23T02:25:25;2.30;;;2.10;;
5022;SDS011;2530;47.990;7.866;2024-03-23T02:27:51;4.10;;;1.90;;
5022;SDS011;2530;47.990;7.866;2024-03-23T02:30:19;3.30;;;2.08;;
5022;SDS011;2530;47.990;7.866;2024-03-23T02:32:45;5.90;;;2.22;;
5022;SDS011;2530;47.990;7.866;2024-03-23T02:35:10;2.50;;;2.30;;
5022;SDS011;2530;47.990;7.866;2024-03-23T02:37:36;2.10;;;1.90;;
5022;SDS011;2530;47.990;7.866;2024-03-23T02:40:02;3.37;;;2.30;;
5022;SDS011;2530;47.990;7.866;2024-03-23T02:42:28;3.00;;;2.40;;
5022;SDS011;2530;47.990;7.866;2024-03-23T02:44:53;2.03;;;1.93;;
5022;SDS011;2530;47.990;7.866;2024-03-23T02:47:19;2.60;;;2.03;;
5022;SDS011;2530;47.990;7.866;2024-03-23T02:49:45;2.97;;;2.25;;
5022;SDS011;2530;47.990;7.866;2024-03-23T02:52:10;3.53;;;2.30;;
5022;SDS011;2530;47.990;7.866;2024-03-23T02:54:36;4.33;;;2.30;;
5022;SDS011;2530;47.990;7.866;2024-03-23T02:57:01;2.50;;;2.30;;
5022;SDS011;2530;47.990;7.866;2024-03-23T02:59:27;3.85;;;2.40;;
5022;SDS011;2530;47.990;7.866;2024-03-23T03:01:53;2.20;;;2.00;;
5022;SDS011;2530;47.990;7.866;2024-03-23T03:04:18;5.20;;;2.78;;
5022;SDS011;2530;47.990;7.866;2024-03-23T03:06:47;3.20;;;2.03;;
5022;SDS011;2530;47.990;7.866;2024-03-23T03:09:14;3.07;;;2.30;;
5022;SDS011;2530;47.990;7.866;2024-03-23T03:11:39;2.67;;;2.10;;
5022;SDS011;2530;47.990;7.866;2024-03-23T03:14:05;2.67;;;2.10;;
5022;SDS011;2530;47.990;7.866;2024-03-23T03:16:32;2.80;;;2.20;;
5022;SDS011;2530;47.990;7.866;2024-03-23T03:18:57;3.17;;;2.45;;
5022;SDS011;2530;47.990;7.866;2024-03-23T03:21:23;3.20;;;2.20;;
5022;SDS011;2530;47.990;7.866;2024-03-23T03:23:48;2.90;;;2.40;;
5022;SDS011;2530;47.990;7.866;2024-03-23T03:26:15;3.10;;;2.30;;
5022;SDS011;2530;47.990;7.866;2024-03-23T03:28:42;3.28;;;2.30;;
5022;SDS011;2530;47.990;7.866;2024-03-23T03:31:13;2.80;;;2.40;;
5022;SDS011;2530;47.990;7.866;2024-03-23T03:33:42;2.70;;;2.50;;
5022;SDS011;2530;47.990;7.866;2024-03-23T03:36:08;3.00;;;2.63;;
5022;SDS011;2530;47.990;7.866;2024-03-23T03:38:33;3.50;;;2.27;;
5022;SDS011;2530;47.990;7.866;2024-03-23T03:41:03;2.75;;;1.85;;
5022;SDS011;2530;47.990;7.866;2024-03-23T03:43:29;2.53;;;2.33;;
5022;SDS011;2530;47.990;7.866;2024-03-23T03:45:55;2.53;;;2.33;;
5022;SDS011;2530;47.990;7.866;2024-03-23T03:48:21;3.38;;;2.30;;
5022;SDS011;2530;47.990;7.866;2024-03-23T03:50:47;2.45;;;2.25;;
5022;SDS011;2530;47.990;7.866;2024-03-23T03:53:13;3.80;;;2.53;;
5022;SDS011;2530;47.990;7.866;2024-03-23T03:55:39;4.93;;;2.40;;
5022;SDS011;2530;47.990;7.866;2024-03-23T03:58:04;2.90;;;1.90;;
5022;SDS011;2530;47.990;7.866;2024-03-23T04:00:30;2.72;;;2.40;;
5022;SDS011;2530;47.990;7.866;2024-03-23T04:02:56;3.73;;;2.57;;
5022;SDS011;2530;47.990;7.866;2024-03-23T04:05:22;3.10;;;2.80;;
5022;SDS011;2530;47.990;7.866;2024-03-23T04:07:48;3.40;;;2.80;;
5022;SDS011;2530;47.990;7.866;2024-03-23T04:10:13;5.13;;;2.70;;
5022;SDS011;2530;47.990;7.866;2024-03-23T04:12:40;2.60;;;2.40;;
5022;SDS011;2530;47.990;7.866;2024-03-23T04:15:06;3.00;;;2.70;;
5022;SDS011;2530;47.990;7.866;2024-03-23T04:17:32;4.35;;;2.47;;
5022;SDS011;2530;47.990;7.866;2024-03-23T04:19:59;3.78;;;2.53;;
5022;SDS011;2530;47.990;7.866;2024-03-23T04:22:26;3.08;;;2.78;;
5022;SDS011;2530;47.990;7.866;2024-03-23T04:24:55;3.25;;;2.65;;
5022;SDS011;2530;47.990;7.866;2024-03-23T04:27:22;5.07;;;2.92;;
5022;SDS011;2530;47.990;7.866;2024-03-23T04:29:50;3.60;;;3.00;;
5022;SDS011;2530;47.990;7.866;2024-03-23T04:32:17;4.47;;;2.90;;
5022;SDS011;2530;47.990;7.866;2024-03-23T04:34:43;3.50;;;2.95;;
5022;SDS011;2530;47.990;7.866;2024-03-23T04:37:08;3.20;;;2.90;;
5022;SDS011;2530;47.990;7.866;2024-03-23T04:39:37;4.85;;;2.85;;
5022;SDS011;2530;47.990;7.866;2024-03-23T04:42:03;4.70;;;3.10;;
5022;SDS011;2530;47.990;7.866;2024-03-23T04:44:29;4.00;;;3.15;;
5022;SDS011;2530;47.990;7.866;2024-03-23T04:46:56;3.30;;;3.00;;
5022;SDS011;2530;47.990;7.866;2024-03-23T04:49:21;3.65;;;2.90;;
5022;SDS011;2530;47.990;7.866;2024-03-23T04:51:47;3.47;;;3.17;;
5022;SDS011;2530;47.990;7.866;2024-03-23T04:54:13;3.57;;;3.27;;
5022;SDS011;2530;47.990;7.866;2024-03-23T04:56:39;4.03;;;3.70;;
5022;SDS011;2530;47.990;7.866;2024-03-23T04:59:05;5.57;;;4.13;;
5022;SDS011;2530;47.990;7.866;2024-03-23T05:01:33;5.78;;;3.90;;
5022;SDS011;2530;47.990;7.866;2024-03-23T05:03:58;6.28;;;4.50;;
5022;SDS011;2530;47.990;7.866;2024-03-23T05:06:24;4.75;;;4.30;;
5022;SDS011;2530;47.990;7.866;2024-03-23T05:08:50;5.40;;;4.20;;
5022;SDS011;2530;47.990;7.866;2024-03-23T05:11:16;5.80;;;4.37;;
5022;SDS011;2530;47.990;7.866;2024-03-23T05:13:43;4.50;;;4.10;;
5022;SDS011;2530;47.990;7.866;2024-03-23T05:16:09;7.07;;;4.70;;
5022;SDS011;2530;47.990;7.866;2024-03-23T05:18:35;4.97;;;4.07;;
5022;SDS011;2530;47.990;7.866;2024-03-23T05:21:01;6.10;;;3.80;;
5022;SDS011;2530;47.990;7.866;2024-03-23T05:23:27;4.15;;;3.75;;
5022;SDS011;2530;47.990;7.866;2024-03-23T05:25:54;4.47;;;4.07;;
5022;SDS011;2530;47.990;7.866;2024-03-23T05:28:20;4.80;;;4.40;;
5022;SDS011;2530;47.990;7.866;2024-03-23T05:30:52;5.20;;;4.70;;
5022;SDS011;2530;47.990;7.866;2024-03-23T05:33:19;4.70;;;3.78;;
5022;SDS011;2530;47.990;7.866;2024-03-23T05:35:45;4.47;;;4.07;;
5022;SDS011;2530;47.990;7.866;2024-03-23T05:38:10;4.30;;;3.80;;
5022;SDS011;2530;47.990;7.866;2024-03-23T05:40:36;4.40;;;3.70;;
5022;SDS011;2530;47.990;7.866;2024-03-23T05:43:05;4.30;;;3.90;;
5022;SDS011;2530;47.990;7.866;2024-03-23T05:45:31;7.00;;;3.80;;
5022;SDS011;2530;47.990;7.866;2024-03-23T05:47:56;4.93;;;4.40;;
5022;SDS011;2530;47.990;7.866;2024-03-23T05:50:22;4.38;;;3.97;;
5022;SDS011;2530;47.990;7.866;2024-03-23T05:52:49;4.20;;;3.80;;
5022;SDS011;2530;47.990;7.866;2024-03-23T05:55:15;4.05;;;3.55;;
5022;SDS011;2530;47.990;7.866;2024-03-23T05:57:40;5.23;;;4.20;;
5022;SDS011;2530;47.990;7.866;2024-03-23T06:00:06;4.37;;;3.97;;
5022;SDS011;2530;47.990;7.866;2024-03-23T06:02:40;4.07;;;3.78;;
5022;SDS011;2530;47.990;7.866;2024-03-23T06:05:06;5.13;;;3.70;;
5022;SDS011;2530;47.990;7.866;2024-03-23T06:07:32;4.72;;;3.65;;
5022;SDS011;2530;47.990;7.866;2024-03-23T06:09:58;4.75;;;4.25;;
5022;SDS011;2530;47.990;7.866;2024-03-23T06:12:23;6.32;;;4.72;;
5022;SDS011;2530;47.990;7.866;2024-03-23T06:14:49;5.00;;;4.30;;
5022;SDS011;2530;47.990;7.866;2024-03-23T06:17:15;4.32;;;3.92;;
5022;SDS011;2530;47.990;7.866;2024-03-23T06:19:40;3.53;;;2.90;;
5022;SDS011;2530;47.990;7.866;2024-03-23T06:22:06;3.33;;;2.55;;
5022;SDS011;2530;47.990;7.866;2024-03-23T06:24:32;4.20;;;3.80;;
5022;SDS011;2530;47.990;7.866;2024-03-23T06:26:58;4.20;;;3.60;;
5022;SDS011;2530;47.990;7.866;2024-03-23T06:29:23;2.80;;;2.43;;
5022;SDS011;2530;47.990;7.866;2024-03-23T06:31:55;2.40;;;1.80;;
5022;SDS011;2530;47.990;7.866;2024-03-23T06:34:21;1.80;;;1.40;;
5022;SDS011;2530;47.990;7.866;2024-03-23T06:36:48;2.35;;;1.27;;
5022;SDS011;2530;47.990;7.866;2024-03-23T06:39:14;2.00;;;1.00;;
5022;SDS011;2530;47.990;7.866;2024-03-23T06:41:41;0.95;;;0.75;;
5022;SDS011;2530;47.990;7.866;2024-03-23T06:44:07;0.80;;;0.70;;
5022;SDS011;2530;47.990;7.866;2024-03-23T06:46:33;1.60;;;0.50;;
5022;SDS011;2530;47.990;7.866;2024-03-23T06:48:59;0.50;;;0.40;;
5022;SDS011;2530;47.990;7.866;2024-03-23T06:51:25;0.50;;;0.40;;
5022;SDS011;2530;47.990;7.866;2024-03-23T06:53:51;0.50;;;0.40;;
5022;SDS011;2530;47.990;7.866;2024-03-23T06:56:16;0.60;;;0.40;;
5022;SDS011;2530;47.990;7.866;2024-03-23T06:58:42;0.50;;;0.40;;
5022;SDS011;2530;47.990;7.866;2024-03-23T07:01:08;1.38;;;0.40;;
5022;SDS011;2530;47.990;7.866;2024-03-23T07:03:34;0.50;;;0.30;;
5022;SDS011;2530;47.990;7.866;2024-03-23T07:05:59;0.60;;;0.40;;
5022;SDS011;2530;47.990;7.866;2024-03-23T07:08:25;0.70;;;0.45;;
5022;SDS011;2530;47.990;7.866;2024-03-23T07:10:51;0.80;;;0.50;;
5022;SDS011;2530;47.990;7.866;2024-03-23T07:13:17;0.50;;;0.40;;
5022;SDS011;2530;47.990;7.866;2024-03-23T07:15:42;0.90;;;0.70;;
5022;SDS011;2530;47.990;7.866;2024-03-23T07:18:08;1.30;;;0.70;;
5022;SDS011;2530;47.990;7.866;2024-03-23T07:20:34;1.10;;;0.52;;
5022;SDS011;2530;47.990;7.866;2024-03-23T07:23:00;1.10;;;0.60;;
5022;SDS011;2530;47.990;7.866;2024-03-23T07:25:25;1.70;;;0.80;;
5022;SDS011;2530;47.990;7.866;2024-03-23T07:27:53;0.40;;;0.30;;
5022;SDS011;2530;47.990;7.866;2024-03-23T07:30:19;0.57;;;0.40;;
5022;SDS011;2530;47.990;7.866;2024-03-23T07:32:45;0.75;;;0.50;;
5022;SDS011;2530;47.990;7.866;2024-03-23T07:35:11;0.63;;;0.40;;
5022;SDS011;2530;47.990;7.866;2024-03-23T07:37:36;0.70;;;0.40;;
5022;SDS011;2530;47.990;7.866;2024-03-23T07:40:02;0.68;;;0.40;;
5022;SDS011;2530;47.990;7.866;2024-03-23T07:42:28;0.60;;;0.40;;
5022;SDS011;2530;47.990;7.866;2024-03-23T07:44:54;0.60;;;0.30;;
5022;SDS011;2530;47.990;7.866;2024-03-23T07:47:21;0.50;;;0.30;;
5022;SDS011;2530;47.990;7.866;2024-03-23T07:49:47;0.60;;;0.40;;
5022;SDS011;2530;47.990;7.866;2024-03-23T07:52:13;0.70;;;0.40;;
5022;SDS011;2530;47.990;7.866;2024-03-23T07:54:39;1.30;;;0.40;;
5022;SDS011;2530;47.990;7.866;2024-03-23T07:57:05;0.77;;;0.35;;
5022;SDS011;2530;47.990;7.866;2024-03-23T07:59:31;1.00;;;0.40;;
5022;SDS011;2530;47.990;7.866;2024-03-23T08:01:58;0.70;;;0.40;;
5022;SDS011;2530;47.990;7.866;2024-03-23T08:04:24;1.00;;;0.40;;
5022;SDS011;2530;47.990;7.866;2024-03-23T08:06:50;0.80;;;0.50;;
5022;SDS011;2530;47.990;7.866;2024-03-23T08:09:16;1.35;;;0.40;;
5022;SDS011;2530;47.990;7.866;2024-03-23T08:11:43;1.40;;;0.80;;
5022;SDS011;2530;47.990;7.866;2024-03-23T08:14:11;1.35;;;0.60;;
5022;SDS011;2530;47.990;7.866;2024-03-23T08:16:37;1.90;;;0.80;;
5022;SDS011;2530;47.990;7.866;2024-03-23T08:19:03;2.78;;;0.90;;
5022;SDS011;2530;47.990;7.866;2024-03-23T08:21:28;1.20;;;0.60;;
5022;SDS011;2530;47.990;7.866;2024-03-23T08:23:54;3.00;;;1.30;;
5022;SDS011;2530;47.990;7.866;2024-03-23T08:26:19;2.40;;;0.90;;
5022;SDS011;2530;47.990;7.866;2024-03-23T08:28:45;1.70;;;1.20;;
5022;SDS011;2530;47.990;7.866;2024-03-23T08:31:13;2.00;;;1.10;;
5022;SDS011;2530;47.990;7.866;2024-03-23T08:33:41;2.85;;;1.20;;
5022;SDS011;2530;47.990;7.866;2024-03-23T08:36:08;2.33;;;1.30;;
5022;SDS011;2530;47.990;7.866;2024-03-23T08:38:35;1.42;;;0.90;;
5022;SDS011;2530;47.990;7.866;2024-03-23T08:41:01;3.50;;;1.70;;
5022;SDS011;2530;47.990;7.866;2024-03-23T08:43:28;2.90;;;1.60;;
5022;SDS011;2530;47.990;7.866;2024-03-23T08:46:06;5.20;;;1.80;;
5022;SDS011;2530;47.990;7.866;2024-03-23T08:48:43;2.50;;;1.20;;
5022;SDS011;2530;47.990;7.866;2024-03-23T08:51:11;3.58;;;1.70;;
5022;SDS011;2530;47.990;7.866;2024-03-23T08:53:38;4.25;;;2.10;;
5022;SDS011;2530;47.990;7.866;2024-03-23T08:56:04;2.60;;;1.45;;
5022;SDS011;2530;47.990;7.866;2024-03-23T08:58:34;2.67;;;1.90;;
5022;SDS011;2530;47.990;7.866;2024-03-23T09:01:06;4.55;;;1.90;;
5022;SDS011;2530;47.990;7.866;2024-03-23T09:03:32;3.72;;;1.90;;
5022;SDS011;2530;47.990;7.866;2024-03-23T09:05:59;2.83;;;1.73;;
5022;SDS011;2530;47.990;7.866;2024-03-23T09:08:31;4.15;;;1.90;;
5022;SDS011;2530;47.990;7.866;2024-03-23T09:11:12;4.10;;;1.90;;
5022;SDS011;2530;47.990;7.866;2024-03-23T09:13:39;3.30;;;2.10;;
5022;SDS011;2530;47.990;7.866;2024-03-23T09:16:06;3.65;;;2.00;;
5022;SDS011;2530;47.990;7.866;2024-03-23T09:18:32;7.20;;;2.22;;
5022;SDS011;2530;47.990;7.866;2024-03-23T09:21:00;4.03;;;2.10;;
5022;SDS011;2530;47.990;7.866;2024-03-23T09:23:26;2.88;;;1.92;;
5022;SDS011;2530;47.990;7.866;2024-03-23T09:25:51;6.95;;;2.22;;
5022;SDS011;2530;47.990;7.866;2024-03-23T09:28:17;3.20;;;2.10;;
5022;SDS011;2530;47.990;7.866;2024-03-23T09:30:42;8.57;;;2.60;;
5022;SDS011;2530;47.990;7.866;2024-03-23T09:33:11;6.00;;;2.10;;
5022;SDS011;2530;47.990;7.866;2024-03-23T09:35:41;5.13;;;2.53;;
5022;SDS011;2530;47.990;7.866;2024-03-23T09:38:07;3.85;;;1.88;;
5022;SDS011;2530;47.990;7.866;2024-03-23T09:40:34;3.40;;;1.85;;
5022;SDS011;2530;47.990;7.866;2024-03-23T09:43:04;2.47;;;1.60;;
5022;SDS011;2530;47.990;7.866;2024-03-23T09:45:31;2.53;;;1.70;;
5022;SDS011;2530;47.990;7.866;2024-03-23T09:48:00;3.60;;;1.50;;
5022;SDS011;2530;47.990;7.866;2024-03-23T09:50:26;3.17;;;1.40;;
5022;SDS011;2530;47.990;7.866;2024-03-23T09:52:52;4.25;;;1.50;;
5022;SDS011;2530;47.990;7.866;2024-03-23T09:55:18;3.38;;;1.40;;
5022;SDS011;2530;47.990;7.866;2024-03-23T09:57:44;1.95;;;1.50;;
5022;SDS011;2530;47.990;7.866;2024-03-23T10:00:09;2.80;;;1.30;;
5022;SDS011;2530;47.990;7.866;2024-03-23T10:02:37;5.00;;;1.50;;
5022;SDS011;2530;47.990;7.866;2024-03-23T10:05:03;2.93;;;1.40;;
5022;SDS011;2530;47.990;7.866;2024-03-23T10:07:29;1.50;;;1.10;;
5022;SDS011;2530;47.990;7.866;2024-03-23T10:09:55;3.20;;;1.30;;
5022;SDS011;2530;47.990;7.866;2024-03-23T10:12:21;2.10;;;1.15;;
5022;SDS011;2530;47.990;7.866;2024-03-23T10:14:48;1.63;;;1.15;;
5022;SDS011;2530;47.990;7.866;2024-03-23T10:19:47;2.80;;;1.50;;
5022;SDS011;2530;47.990;7.866;2024-03-23T10:22:20;3.28;;;1.30;;
5022;SDS011;2530;47.990;7.866;2024-03-23T10:24:49;3.80;;;1.50;;
5022;SDS011;2530;47.990;7.866;2024-03-23T10:27:16;2.63;;;1.60;;
5022;SDS011;2530;47.990;7.866;2024-03-23T10:29:45;2.00;;;1.27;;
5022;SDS011;2530;47.990;7.866;2024-03-23T10:32:12;3.10;;;1.50;;
5022;SDS011;2530;47.990;7.866;2024-03-23T10:34:38;5.57;;;1.75;;
5022;SDS011;2530;47.990;7.866;2024-03-23T10:37:05;5.35;;;1.40;;
5022;SDS011;2530;47.990;7.866;2024-03-23T10:39:32;3.58;;;1.50;;
5022;SDS011;2530;47.990;7.866;2024-03-23T10:42:08;2.90;;;1.13;;
5022;SDS011;2530;47.990;7.866;2024-03-23T10:44:37;1.90;;;1.00;;
5022;SDS011;2530;47.990;7.866;2024-03-23T10:47:03;2.67;;;1.35;;
5022;SDS011;2530;47.990;7.866;2024-03-23T10:49:31;3.42;;;1.80;;
5022;SDS011;2530;47.990;7.866;2024-03-23T10:51:58;1.90;;;1.20;;
5022;SDS011;2530;47.990;7.866;2024-03-23T10:54:24;1.88;;;1.17;;
5022;SDS011;2530;47.990;7.866;2024-03-23T10:56:51;2.17;;;1.20;;
5022;SDS011;2530;47.990;7.866;2024-03-23T10:59:25;2.33;;;1.50;;
5022;SDS011;2530;47.990;7.866;2024-03-23T11:01:55;4.13;;;1.73;;
5022;SDS011;2530;47.990;7.866;2024-03-23T11:04:36;1.42;;;1.15;;
5022;SDS011;2530;47.990;7.866;2024-03-23T11:09:51;2.83;;;1.50;;
5022;SDS011;2530;47.990;7.866;2024-03-23T11:14:50;3.13;;;1.48;;
5022;SDS011;2530;47.990;7.866;2024-03-23T11:17:17;3.75;;;1.20;;
5022;SDS011;2530;47.990;7.866;2024-03-23T11:19:44;2.78;;;1.50;;
5022;SDS011;2530;47.990;7.866;2024-03-23T11:22:09;2.92;;;1.08;;
5022;SDS011;2530;47.990;7.866;2024-03-23T11:24:35;2.88;;;1.30;;
5022;SDS011;2530;47.990;7.866;2024-03-23T11:27:01;3.73;;;1.40;;
5022;SDS011;2530;47.990;7.866;2024-03-23T11:29:29;3.55;;;1.10;;
5022;SDS011;2530;47.990;7.866;2024-03-23T11:31:55;1.40;;;1.20;;
5022;SDS011;2530;47.990;7.866;2024-03-23T11:34:23;2.30;;;1.13;;
5022;SDS011;2530;47.990;7.866;2024-03-23T11:36:49;1.88;;;1.20;;
5022;SDS011;2530;47.990;7.866;2024-03-23T11:39:27;3.78;;;0.98;;
5022;SDS011;2530;47.990;7.866;2024-03-23T11:41:52;3.70;;;1.00;;
5022;SDS011;2530;47.990;7.866;2024-03-23T11:44:20;1.42;;;1.00;;
5022;SDS011;2530;47.990;7.866;2024-03-23T11:46:51;5.80;;;1.20;;
5022;SDS011;2530;47.990;7.866;2024-03-23T11:51:52;2.20;;;0.85;;
5022;SDS011;2530;47.990;7.866;2024-03-23T11:54:23;1.55;;;1.10;;
5022;SDS011;2530;47.990;7.866;2024-03-23T11:59:34;1.23;;;0.80;;
5022;SDS011;2530;47.990;7.866;2024-03-23T12:02:05;1.00;;;0.73;;
5022;SDS011;2530;47.990;7.866;2024-03-23T12:04:41;2.27;;;0.77;;
5022;SDS011;2530;47.990;7.866;2024-03-23T12:07:25;1.25;;;0.98;;
5022;SDS011;2530;47.990;7.866;2024-03-23T12:10:03;2.03;;;0.80;;
5022;SDS011;2530;47.990;7.866;2024-03-23T12:12:31;1.02;;;0.68;;
5022;SDS011;2530;47.990;7.866;2024-03-23T12:15:07;1.40;;;0.80;;
5022;SDS011;2530;47.990;7.866;2024-03-23T12:17:33;2.22;;;1.23;;
5022;SDS011;2530;47.990;7.866;2024-03-23T12:19:59;1.55;;;0.90;;
5022;SDS011;2530;47.990;7.866;2024-03-23T12:22:25;2.10;;;0.70;;
5022;SDS011;2530;47.990;7.866;2024-03-23T12:24:52;2.50;;;1.27;;
5022;SDS011;2530;47.990;7.866;2024-03-23T12:27:17;2.40;;;0.90;;
5022;SDS011;2530;47.990;7.866;2024-03-23T12:29:43;3.08;;;1.30;;
5022;SDS011;2530;47.990;7.866;2024-03-23T12:32:12;2.23;;;1.23;;
5022;SDS011;2530;47.990;7.866;2024-03-23T12:34:39;3.20;;;1.30;;
5022;SDS011;2530;47.990;7.866;2024-03-23T12:37:06;2.85;;;1.48;;
5022;SDS011;2530;47.990;7.866;2024-03-23T12:39:32;4.03;;;1.40;;
5022;SDS011;2530;47.990;7.866;2024-03-23T12:41:57;3.08;;;1.50;;
5022;SDS011;2530;47.990;7.866;2024-03-23T12:44:23;2.50;;;1.20;;
5022;SDS011;2530;47.990;7.866;2024-03-23T12:46:48;3.27;;;1.40;;
5022;SDS011;2530;47.990;7.866;2024-03-23T12:49:14;2.10;;;1.30;;
5022;SDS011;2530;47.990;7.866;2024-03-23T12:51:43;2.85;;;1.27;;
5022;SDS011;2530;47.990;7.866;2024-03-23T12:54:13;1.80;;;1.30;;
5022;SDS011;2530;47.990;7.866;2024-03-23T12:56:39;2.80;;;1.40;;
5022;SDS011;2530;47.990;7.866;2024-03-23T12:59:04;4.53;;;1.43;;
5022;SDS011;2530;47.990;7.866;2024-03-23T13:01:30;3.40;;;1.45;;
5022;SDS011;2530;47.990;7.866;2024-03-23T13:03:56;4.90;;;1.60;;
5022;SDS011;2530;47.990;7.866;2024-03-23T13:06:21;3.08;;;0.93;;
5022;SDS011;2530;47.990;7.866;2024-03-23T13:08:47;3.55;;;1.42;;
5022;SDS011;2530;47.990;7.866;2024-03-23T13:11:15;5.03;;;1.60;;
5022;SDS011;2530;47.990;7.866;2024-03-23T13:13:40;2.80;;;1.40;;
5022;SDS011;2530;47.990;7.866;2024-03-23T13:16:09;6.83;;;1.93;;
5022;SDS011;2530;47.990;7.866;2024-03-23T13:18:35;5.33;;;1.50;;
5022;SDS011;2530;47.990;7.866;2024-03-23T13:21:01;3.17;;;1.30;;
5022;SDS011;2530;47.990;7.866;2024-03-23T13:23:27;2.67;;;1.15;;
5022;SDS011;2530;47.990;7.866;2024-03-23T13:25:55;3.20;;;1.40;;
5022;SDS011;2530;47.990;7.866;2024-03-23T13:28:22;2.03;;;1.00;;
5022;SDS011;2530;47.990;7.866;2024-03-23T13:33:16;3.63;;;1.30;;
5022;SDS011;2530;47.990;7.866;2024-03-23T13:35:49;3.97;;;1.17;;
5022;SDS011;2530;47.990;7.866;2024-03-23T13:38:18;2.85;;;1.10;;
5022;SDS011;2530;47.990;7.866;2024-03-23T13:40:54;4.47;;;1.30;;
5022;SDS011;2530;47.990;7.866;2024-03-23T13:43:21;2.85;;;1.30;;
5022;SDS011;2530;47.990;7.866;2024-03-23T13:45:48;3.58;;;1.33;;
5022;SDS011;2530;47.990;7.866;2024-03-23T13:48:16;2.00;;;0.82;;
5022;SDS011;2530;47.990;7.866;2024-03-23T13:50:42;3.20;;;1.30;;
5022;SDS011;2530;47.990;7.866;2024-03-23T13:53:08;3.67;;;1.20;;
5022;SDS011;2530;47.990;7.866;2024-03-23T13:55:34;3.85;;;1.15;;
5022;SDS011;2530;47.990;7.866;2024-03-23T13:57:59;1.83;;;0.80;;
5022;SDS011;2530;47.990;7.866;2024-03-23T14:00:25;2.50;;;1.00;;
5022;SDS011;2530;47.990;7.866;2024-03-23T14:02:51;2.25;;;0.90;;
5022;SDS011;2530;47.990;7.866;2024-03-23T14:05:17;2.63;;;0.70;;
5022;SDS011;2530;47.990;7.866;2024-03-23T14:07:42;2.13;;;0.80;;
5022;SDS011;2530;47.990;7.866;2024-03-23T14:10:08;3.88;;;1.05;;
5022;SDS011;2530;47.990;7.866;2024-03-23T14:12:37;4.53;;;1.00;;
5022;SDS011;2530;47.990;7.866;2024-03-23T14:15:06;2.90;;;0.80;;
5022;SDS011;2530;47.990;7.866;2024-03-23T14:17:32;2.13;;;0.90;;
5022;SDS011;2530;47.990;7.866;2024-03-23T14:19:58;2.08;;;0.70;;
5022;SDS011;2530;47.990;7.866;2024-03-23T14:22:27;1.95;;;0.90;;
5022;SDS011;2530;47.990;7.866;2024-03-23T14:24:53;2.13;;;0.80;;
5022;SDS011;2530;47.990;7.866;2024-03-23T14:27:19;3.07;;;1.10;;
5022;SDS011;2530;47.990;7.866;2024-03-23T14:29:47;3.60;;;0.90;;
5022;SDS011;2530;47.990;7.866;2024-03-23T14:32:13;4.63;;;1.17;;
5022;SDS011;2530;47.990;7.866;2024-03-23T14:34:39;4.07;;;1.10;;
5022;SDS011;2530;47.990;7.866;2024-03-23T14:37:05;3.15;;;1.00;;
5022;SDS011;2530;47.990;7.866;2024-03-23T14:39:31;5.60;;;0.80;;
5022;SDS011;2530;47.990;7.866;2024-03-23T14:41:59;3.00;;;0.70;;
5022;SDS011;2530;47.990;7.866;2024-03-23T14:44:25;2.50;;;0.80;;
5022;SDS011;2530;47.990;7.866;2024-03-23T14:46:51;2.00;;;0.80;;
5022;SDS011;2530;47.990;7.866;2024-03-23T14:49:17;2.30;;;0.90;;
5022;SDS011;2530;47.990;7.866;2024-03-23T14:51:42;2.00;;;0.60;;
5022;SDS011;2530;47.990;7.866;2024-03-23T14:54:08;2.00;;;0.60;;
5022;SDS011;2530;47.990;7.866;2024-03-23T14:56:34;4.85;;;2.00;;
5022;SDS011;2530;47.990;7.866;2024-03-23T14:59:00;1.55;;;0.70;;
5022;SDS011;2530;47.990;7.866;2024-03-23T15:01:26;3.60;;;0.80;;
5022;SDS011;2530;47.990;7.866;2024-03-23T15:03:51;3.67;;;0.90;;
5022;SDS011;2530;47.990;7.866;2024-03-23T15:06:18;3.72;;;0.60;;
5022;SDS011;2530;47.990;7.866;2024-03-23T15:08:44;1.60;;;0.60;;
5022;SDS011;2530;47.990;7.866;2024-03-23T15:11:10;1.50;;;0.80;;
5022;SDS011;2530;47.990;7.866;2024-03-23T15:13:36;2.47;;;0.70;;
5022;SDS011;2530;47.990;7.866;2024-03-23T15:16:03;1.67;;;0.73;;
5022;SDS011;2530;47.990;7.866;2024-03-23T15:18:29;1.13;;;0.60;;
5022;SDS011;2530;47.990;7.866;2024-03-23T15:20:55;2.33;;;0.70;;
5022;SDS011;2530;47.990;7.866;2024-03-23T15:23:22;4.35;;;0.98;;
5022;SDS011;2530;47.990;7.866;2024-03-23T15:25:54;1.95;;;0.60;;
5022;SDS011;2530;47.990;7.866;2024-03-23T15:28:23;2.58;;;0.90;;
5022;SDS011;2530;47.990;7.866;2024-03-23T15:30:51;2.00;;;0.80;;
5022;SDS011;2530;47.990;7.866;2024-03-23T15:33:17;2.00;;;0.70;;
5022;SDS011;2530;47.990;7.866;2024-03-23T15:35:43;1.07;;;0.50;;
5022;SDS011;2530;47.990;7.866;2024-03-23T15:38:08;2.70;;;0.93;;
5022;SDS011;2530;47.990;7.866;2024-03-23T15:42:15;1.80;;;0.57;;
5022;SDS011;2530;47.990;7.866;2024-03-23T15:44:40;2.30;;;0.90;;
5022;SDS011;2530;47.990;7.866;2024-03-23T15:47:06;3.27;;;1.17;;
5022;SDS011;2530;47.990;7.866;2024-03-23T15:49:31;2.50;;;0.90;;
5022;SDS011;2530;47.990;7.866;2024-03-23T15:51:57;2.90;;;0.83;;
5022;SDS011;2530;47.990;7.866;2024-03-23T15:54:23;2.45;;;0.98;;
5022;SDS011;2530;47.990;7.866;2024-03-23T15:56:48;1.20;;;0.80;;
5022;SDS011;2530;47.990;7.866;2024-03-23T15:59:14;1.30;;;0.90;;
5022;SDS011;2530;47.990;7.866;2024-03-23T16:01:39;1.20;;;0.80;;
5022;SDS011;2530;47.990;7.866;2024-03-23T16:04:05;2.45;;;0.80;;
5022;SDS011;2530;47.990;7.866;2024-03-23T16:06:30;1.90;;;0.80;;
5022;SDS011;2530;47.990;7.866;2024-03-23T16:08:56;1.20;;;0.50;;
5022;SDS011;2530;47.990;7.866;2024-03-23T16:11:21;0.90;;;0.50;;
5022;SDS011;2530;47.990;7.866;2024-03-23T16:13:47;1.35;;;0.60;;
5022;SDS011;2530;47.990;7.866;2024-03-23T16:16:12;0.80;;;0.55;;
5022;SDS011;2530;47.990;7.866;2024-03-23T16:18:38;2.50;;;0.47;;
5022;SDS011;2530;47.990;7.866;2024-03-23T16:21:51;1.20;;;0.50;;
5022;SDS011;2530;47.990;7.866;2024-03-23T16:24:18;0.80;;;0.60;;